sensor_id;sensor_type;location;lat;lon;timestamp;temperature;humidity
79016;DHT22;72726;44.842;37.556;2024-01-30T00:00:58;-1.66;78.78
79016;DHT22;72726;44.842;37.556;2024-01-30T00:01:59;-1.66;77.97
79016;DHT22;72726;44.842;37.556;2024-01-30T00:03:00;-1.66;78.45
79016;DHT22;72726;44.842;37.556;2024-01-30T00:04:02;-1.65;78.37
79016;DHT22;72726;44.842;37.556;2024-01-30T00:05:04;-1.64;78.24
79016;DHT22;72726;44.842;37.556;2024-01-30T00:06:06;-1.65;78.13
79016;DHT22;72726;44.842;37.556;2024-01-30T00:07:07;-1.66;78.57
79016;DHT22;72726;44.842;37.556;2024-01-30T00:08:08;-1.66;78.67
79016;DHT22;72726;44.842;37.556;2024-01-30T00:09:10;-1.68;78.57
79016;DHT22;72726;44.842;37.556;2024-01-30T00:10:12;-1.72;78.45
79016;DHT22;72726;44.842;37.556;2024-01-30T00:11:13;-1.69;78.86
79016;DHT22;72726;44.842;37.556;2024-01-30T00:12:14;-1.71;78.83
79016;DHT22;72726;44.842;37.556;2024-01-30T00:13:15;-1.69;79.03
79016;DHT22;72726;44.842;37.556;2024-01-30T00:14:19;-1.68;78.86
79016;DHT22;72726;44.842;37.556;2024-01-30T00:15:20;-1.65;78.87
79016;DHT22;72726;44.842;37.556;2024-01-30T00:16:23;-1.64;78.51
79016;DHT22;72726;44.842;37.556;2024-01-30T00:17:25;-1.62;78.15
79016;DHT22;72726;44.842;37.556;2024-01-30T00:18:27;-1.65;78.15
79016;DHT22;72726;44.842;37.556;2024-01-30T00:19:28;-1.61;78.33
79016;DHT22;72726;44.842;37.556;2024-01-30T00:20:29;-1.62;78.28
79016;DHT22;72726;44.842;37.556;2024-01-30T00:21:31;-1.58;78.57
79016;DHT22;72726;44.842;37.556;2024-01-30T00:22:32;-1.58;78.45
79016;DHT22;72726;44.842;37.556;2024-01-30T00:23:33;-1.54;78.66
79016;DHT22;72726;44.842;37.556;2024-01-30T00:24:35;-1.52;78.57
79016;DHT22;72726;44.842;37.556;2024-01-30T00:25:36;-1.54;77.52
79016;DHT22;72726;44.842;37.556;2024-01-30T00:26:37;-1.54;77.48
79016;DHT22;72726;44.842;37.556;2024-01-30T00:27:38;-1.52;77.76
79016;DHT22;72726;44.842;37.556;2024-01-30T00:28:43;-1.52;77.73
79016;DHT22;72726;44.842;37.556;2024-01-30T00:29:44;-1.54;77.18
79016;DHT22;72726;44.842;37.556;2024-01-30T00:30:45;-1.54;77.09
79016;DHT22;72726;44.842;37.556;2024-01-30T00:31:47;-1.56;77.30
79016;DHT22;72726;44.842;37.556;2024-01-30T00:32:48;-1.52;77.37
79016;DHT22;72726;44.842;37.556;2024-01-30T00:33:49;-1.55;76.91
79016;DHT22;72726;44.842;37.556;2024-01-30T00:34:50;-1.55;76.76
79016;DHT22;72726;44.842;37.556;2024-01-30T00:35:52;-1.61;76.85
79016;DHT22;72726;44.842;37.556;2024-01-30T00:36:53;-1.61;77.05
79016;DHT22;72726;44.842;37.556;2024-01-30T00:37:54;-1.64;77.06
79016;DHT22;72726;44.842;37.556;2024-01-30T00:38:56;-1.61;77.41
79016;DHT22;72726;44.842;37.556;2024-01-30T00:39:57;-1.61;76.86
79016;DHT22;72726;44.842;37.556;2024-01-30T00:40:58;-1.64;77.07
79016;DHT22;72726;44.842;37.556;2024-01-30T00:42:00;-1.64;77.13
79016;DHT22;72726;44.842;37.556;2024-01-30T00:43:01;-1.65;77.45
79016;DHT22;72726;44.842;37.556;2024-01-30T00:44:02;-1.65;77.37
79016;DHT22;72726;44.842;37.556;2024-01-30T00:45:04;-1.66;77.37
79016;DHT22;72726;44.842;37.556;2024-01-30T00:46:05;-1.69;77.84
79016;DHT22;72726;44.842;37.556;2024-01-30T00:47:06;-1.62;77.83
79016;DHT22;72726;44.842;37.556;2024-01-30T00:48:08;-1.61;78.16
79016;DHT22;72726;44.842;37.556;2024-01-30T00:49:10;-1.58;77.80
79016;DHT22;72726;44.842;37.556;2024-01-30T00:50:11;-1.58;77.48
79016;DHT22;72726;44.842;37.556;2024-01-30T00:51:13;-1.58;77.58
79016;DHT22;72726;44.842;37.556;2024-01-30T00:52:14;-1.59;77.70
79016;DHT22;72726;44.842;37.556;2024-01-30T00:53:15;-1.58;78.11
79016;DHT22;72726;44.842;37.556;2024-01-30T00:54:16;-1.55;78.13
79016;DHT22;72726;44.842;37.556;2024-01-30T00:55:18;-1.51;78.22
79016;DHT22;72726;44.842;37.556;2024-01-30T00:56:20;-1.50;77.47
79016;DHT22;72726;44.842;37.556;2024-01-30T00:57:21;-1.51;77.73
79016;DHT22;72726;44.842;37.556;2024-01-30T00:58:22;-1.50;77.60
79016;DHT22;72726;44.842;37.556;2024-01-30T00:59:23;-1.51;77.28
79016;DHT22;72726;44.842;37.556;2024-01-30T01:00:25;-1.55;77.11
79016;DHT22;72726;44.842;37.556;2024-01-30T01:01:29;-1.56;77.85
79016;DHT22;72726;44.842;37.556;2024-01-30T01:02:31;-1.52;77.93
79016;DHT22;72726;44.842;37.556;2024-01-30T01:03:32;-1.52;77.11
79016;DHT22;72726;44.842;37.556;2024-01-30T01:04:34;-1.59;76.63
79016;DHT22;72726;44.842;37.556;2024-01-30T01:05:36;-1.62;76.93
79016;DHT22;72726;44.842;37.556;2024-01-30T01:06:37;-1.65;77.51
79016;DHT22;72726;44.842;37.556;2024-01-30T01:07:38;-1.61;77.63
79016;DHT22;72726;44.842;37.556;2024-01-30T01:08:41;-1.61;77.82
79016;DHT22;72726;44.842;37.556;2024-01-30T01:09:42;-1.56;77.66
79016;DHT22;72726;44.842;37.556;2024-01-30T01:10:43;-1.55;77.38
79016;DHT22;72726;44.842;37.556;2024-01-30T01:11:45;-1.58;76.78
79016;DHT22;72726;44.842;37.556;2024-01-30T01:12:47;-1.61;77.02
79016;DHT22;72726;44.842;37.556;2024-01-30T01:13:49;-1.66;77.13
79016;DHT22;72726;44.842;37.556;2024-01-30T01:14:50;-1.66;77.43
79016;DHT22;72726;44.842;37.556;2024-01-30T01:15:51;-1.66;76.96
79016;DHT22;72726;44.842;37.556;2024-01-30T01:16:53;-1.75;76.50
79016;DHT22;72726;44.842;37.556;2024-01-30T01:17:54;-1.79;76.83
79016;DHT22;72726;44.842;37.556;2024-01-30T01:18:55;-1.76;77.38
79016;DHT22;72726;44.842;37.556;2024-01-30T01:19:57;-1.76;77.28
79016;DHT22;72726;44.842;37.556;2024-01-30T01:20:58;-1.82;76.77
79016;DHT22;72726;44.842;37.556;2024-01-30T01:22:00;-1.83;76.92
79016;DHT22;72726;44.842;37.556;2024-01-30T01:23:01;-1.83;77.72
79016;DHT22;72726;44.842;37.556;2024-01-30T01:24:03;-1.83;77.31
79016;DHT22;72726;44.842;37.556;2024-01-30T01:25:05;-1.85;77.29
79016;DHT22;72726;44.842;37.556;2024-01-30T01:26:09;-1.85;77.54
79016;DHT22;72726;44.842;37.556;2024-01-30T01:27:11;-1.85;77.52
79016;DHT22;72726;44.842;37.556;2024-01-30T01:28:12;-1.85;77.42
79016;DHT22;72726;44.842;37.556;2024-01-30T01:29:13;-1.85;77.88
79016;DHT22;72726;44.842;37.556;2024-01-30T01:30:17;-1.83;77.52
79016;DHT22;72726;44.842;37.556;2024-01-30T01:31:22;-1.86;77.19
79016;DHT22;72726;44.842;37.556;2024-01-30T01:32:25;-1.89;77.42
79016;DHT22;72726;44.842;37.556;2024-01-30T01:33:27;-1.93;77.06
79016;DHT22;72726;44.842;37.556;2024-01-30T01:34:28;-1.94;76.98
79016;DHT22;72726;44.842;37.556;2024-01-30T01:35:30;-1.96;77.43
79016;DHT22;72726;44.842;37.556;2024-01-30T01:36:31;-1.96;77.55
79016;DHT22;72726;44.842;37.556;2024-01-30T01:37:32;-1.97;77.38
79016;DHT22;72726;44.842;37.556;2024-01-30T01:38:34;-1.99;77.33
79016;DHT22;72726;44.842;37.556;2024-01-30T01:39:35;-1.93;77.98
79016;DHT22;72726;44.842;37.556;2024-01-30T01:40:36;-1.92;77.85
79016;DHT22;72726;44.842;37.556;2024-01-30T01:41:40;-1.94;77.06
79016;DHT22;72726;44.842;37.556;2024-01-30T01:42:42;-1.96;77.65
79016;DHT22;72726;44.842;37.556;2024-01-30T01:43:43;-1.94;77.84
79016;DHT22;72726;44.842;37.556;2024-01-30T01:44:44;-1.93;77.86
79016;DHT22;72726;44.842;37.556;2024-01-30T01:45:46;-1.96;77.69
79016;DHT22;72726;44.842;37.556;2024-01-30T01:46:47;-1.97;77.73
79016;DHT22;72726;44.842;37.556;2024-01-30T01:47:51;-1.97;77.45
79016;DHT22;72726;44.842;37.556;2024-01-30T01:48:54;-2.03;77.42
79016;DHT22;72726;44.842;37.556;2024-01-30T01:49:56;-2.06;77.44
79016;DHT22;72726;44.842;37.556;2024-01-30T01:50:58;-2.07;77.77
79016;DHT22;72726;44.842;37.556;2024-01-30T01:52:00;-2.07;77.74
79016;DHT22;72726;44.842;37.556;2024-01-30T01:53:02;-2.11;77.88
79016;DHT22;72726;44.842;37.556;2024-01-30T01:54:04;-2.10;78.03
79016;DHT22;72726;44.842;37.556;2024-01-30T01:55:08;-2.09;78.36
79016;DHT22;72726;44.842;37.556;2024-01-30T01:56:13;-2.06;78.08
79016;DHT22;72726;44.842;37.556;2024-01-30T01:57:14;-2.07;77.81
79016;DHT22;72726;44.842;37.556;2024-01-30T01:58:16;-2.09;77.83
79016;DHT22;72726;44.842;37.556;2024-01-30T01:59:18;-2.07;77.51
79016;DHT22;72726;44.842;37.556;2024-01-30T02:00:20;-2.10;77.33
79016;DHT22;72726;44.842;37.556;2024-01-30T02:01:23;-2.14;77.21
79016;DHT22;72726;44.842;37.556;2024-01-30T02:02:26;-2.21;77.36
79016;DHT22;72726;44.842;37.556;2024-01-30T02:03:31;-2.23;77.65
79016;DHT22;72726;44.842;37.556;2024-01-30T02:04:33;-2.24;78.16
79016;DHT22;72726;44.842;37.556;2024-01-30T02:05:34;-2.23;77.90
79016;DHT22;72726;44.842;37.556;2024-01-30T02:06:36;-2.28;77.95
79016;DHT22;72726;44.842;37.556;2024-01-30T02:07:37;-2.30;77.82
79016;DHT22;72726;44.842;37.556;2024-01-30T02:08:40;-2.31;77.87
79016;DHT22;72726;44.842;37.556;2024-01-30T02:09:41;-2.34;78.07
79016;DHT22;72726;44.842;37.556;2024-01-30T02:10:42;-2.34;78.10
79016;DHT22;72726;44.842;37.556;2024-01-30T02:11:44;-2.40;78.05
79016;DHT22;72726;44.842;37.556;2024-01-30T02:12:45;-2.38;78.51
79016;DHT22;72726;44.842;37.556;2024-01-30T02:13:46;-2.40;78.31
79016;DHT22;72726;44.842;37.556;2024-01-30T02:14:48;-2.38;78.30
79016;DHT22;72726;44.842;37.556;2024-01-30T02:15:51;-2.41;78.47
79016;DHT22;72726;44.842;37.556;2024-01-30T02:16:52;-2.42;78.42
79016;DHT22;72726;44.842;37.556;2024-01-30T02:17:54;-2.44;78.26
79016;DHT22;72726;44.842;37.556;2024-01-30T02:18:55;-2.44;78.52
79016;DHT22;72726;44.842;37.556;2024-01-30T02:19:59;-2.44;78.28
79016;DHT22;72726;44.842;37.556;2024-01-30T02:21:04;-2.49;78.24
79016;DHT22;72726;44.842;37.556;2024-01-30T02:22:05;-2.48;78.31
79016;DHT22;72726;44.842;37.556;2024-01-30T02:23:07;-2.52;78.45
79016;DHT22;72726;44.842;37.556;2024-01-30T02:24:10;-2.54;78.57
79016;DHT22;72726;44.842;37.556;2024-01-30T02:25:11;-2.54;78.56
79016;DHT22;72726;44.842;37.556;2024-01-30T02:26:12;-2.56;78.72
79016;DHT22;72726;44.842;37.556;2024-01-30T02:27:14;-2.61;78.55
79016;DHT22;72726;44.842;37.556;2024-01-30T02:28:15;-2.61;78.70
79016;DHT22;72726;44.842;37.556;2024-01-30T02:29:17;-2.64;78.49
79016;DHT22;72726;44.842;37.556;2024-01-30T02:30:18;-2.62;78.59
79016;DHT22;72726;44.842;37.556;2024-01-30T02:31:20;-2.64;78.44
79016;DHT22;72726;44.842;37.556;2024-01-30T02:32:21;-2.66;78.30
79016;DHT22;72726;44.842;37.556;2024-01-30T02:33:22;-2.69;78.50
79016;DHT22;72726;44.842;37.556;2024-01-30T02:34:24;-2.73;78.33
79016;DHT22;72726;44.842;37.556;2024-01-30T02:35:25;-2.72;78.43
79016;DHT22;72726;44.842;37.556;2024-01-30T02:36:27;-2.73;78.82
79016;DHT22;72726;44.842;37.556;2024-01-30T02:37:28;-2.72;78.42
79016;DHT22;72726;44.842;37.556;2024-01-30T02:38:29;-2.72;78.60
79016;DHT22;72726;44.842;37.556;2024-01-30T02:39:31;-2.75;78.33
79016;DHT22;72726;44.842;37.556;2024-01-30T02:40:32;-2.73;78.21
79016;DHT22;72726;44.842;37.556;2024-01-30T02:41:33;-2.75;77.90
79016;DHT22;72726;44.842;37.556;2024-01-30T02:42:35;-2.77;77.85
79016;DHT22;72726;44.842;37.556;2024-01-30T02:43:36;-2.77;78.08
79016;DHT22;72726;44.842;37.556;2024-01-30T02:44:37;-2.79;77.57
79016;DHT22;72726;44.842;37.556;2024-01-30T02:45:38;-2.79;77.09
79016;DHT22;72726;44.842;37.556;2024-01-30T02:46:40;-2.79;77.51
79016;DHT22;72726;44.842;37.556;2024-01-30T02:47:41;-2.79;77.71
79016;DHT22;72726;44.842;37.556;2024-01-30T02:48:42;-2.76;77.90
79016;DHT22;72726;44.842;37.556;2024-01-30T02:49:44;-2.82;77.25
79016;DHT22;72726;44.842;37.556;2024-01-30T02:50:45;-2.86;77.17
79016;DHT22;72726;44.842;37.556;2024-01-30T02:51:48;-2.83;77.73
79016;DHT22;72726;44.842;37.556;2024-01-30T02:52:49;-2.83;77.09
79016;DHT22;72726;44.842;37.556;2024-01-30T02:53:50;-2.83;77.43
79016;DHT22;72726;44.842;37.556;2024-01-30T02:54:51;-2.83;77.45
79016;DHT22;72726;44.842;37.556;2024-01-30T02:55:53;-2.85;77.65
79016;DHT22;72726;44.842;37.556;2024-01-30T02:56:54;-2.82;77.84
79016;DHT22;72726;44.842;37.556;2024-01-30T02:57:55;-2.79;77.50
79016;DHT22;72726;44.842;37.556;2024-01-30T02:58:57;-2.82;77.23
79016;DHT22;72726;44.842;37.556;2024-01-30T02:59:58;-2.83;77.62
79016;DHT22;72726;44.842;37.556;2024-01-30T03:00:59;-2.82;77.88
79016;DHT22;72726;44.842;37.556;2024-01-30T03:02:01;-2.85;77.68
79016;DHT22;72726;44.842;37.556;2024-01-30T03:03:02;-2.82;77.41
79016;DHT22;72726;44.842;37.556;2024-01-30T03:04:03;-2.83;77.60
79016;DHT22;72726;44.842;37.556;2024-01-30T03:05:05;-2.80;78.01
79016;DHT22;72726;44.842;37.556;2024-01-30T03:06:07;-2.82;77.80
79016;DHT22;72726;44.842;37.556;2024-01-30T03:07:09;-2.79;78.21
79016;DHT22;72726;44.842;37.556;2024-01-30T03:08:10;-2.77;77.83
79016;DHT22;72726;44.842;37.556;2024-01-30T03:09:11;-2.80;77.41
79016;DHT22;72726;44.842;37.556;2024-01-30T03:10:12;-2.80;77.19
79016;DHT22;72726;44.842;37.556;2024-01-30T03:11:14;-2.82;77.43
79016;DHT22;72726;44.842;37.556;2024-01-30T03:12:15;-2.83;77.91
79016;DHT22;72726;44.842;37.556;2024-01-30T03:13:16;-2.83;78.17
79016;DHT22;72726;44.842;37.556;2024-01-30T03:14:18;-2.77;78.37
79016;DHT22;72726;44.842;37.556;2024-01-30T03:15:19;-2.79;77.69
79016;DHT22;72726;44.842;37.556;2024-01-30T03:16:21;-2.80;77.02
79016;DHT22;72726;44.842;37.556;2024-01-30T03:17:22;-2.80;77.17
79016;DHT22;72726;44.842;37.556;2024-01-30T03:18:25;-2.77;77.25
79016;DHT22;72726;44.842;37.556;2024-01-30T03:19:26;-2.79;76.85
79016;DHT22;72726;44.842;37.556;2024-01-30T03:20:27;-2.83;77.27
79016;DHT22;72726;44.842;37.556;2024-01-30T03:21:29;-2.86;77.77
79016;DHT22;72726;44.842;37.556;2024-01-30T03:22:30;-2.85;77.61
79016;DHT22;72726;44.842;37.556;2024-01-30T03:23:32;-2.86;77.15
79016;DHT22;72726;44.842;37.556;2024-01-30T03:24:33;-2.86;77.27
79016;DHT22;72726;44.842;37.556;2024-01-30T03:25:35;-2.87;77.60
79016;DHT22;72726;44.842;37.556;2024-01-30T03:26:36;-2.86;77.23
79016;DHT22;72726;44.842;37.556;2024-01-30T03:27:37;-2.89;76.68
79016;DHT22;72726;44.842;37.556;2024-01-30T03:28:38;-2.93;76.79
79016;DHT22;72726;44.842;37.556;2024-01-30T03:29:40;-2.93;76.86
79016;DHT22;72726;44.842;37.556;2024-01-30T03:30:41;-2.90;76.97
79016;DHT22;72726;44.842;37.556;2024-01-30T03:31:42;-2.93;76.94
79016;DHT22;72726;44.842;37.556;2024-01-30T03:32:44;-2.94;77.25
79016;DHT22;72726;44.842;37.556;2024-01-30T03:33:45;-2.97;77.29
79016;DHT22;72726;44.842;37.556;2024-01-30T03:34:47;-2.96;77.19
79016;DHT22;72726;44.842;37.556;2024-01-30T03:35:48;-2.96;77.65
79016;DHT22;72726;44.842;37.556;2024-01-30T03:36:50;-2.94;77.25
79016;DHT22;72726;44.842;37.556;2024-01-30T03:37:51;-2.94;77.00
79016;DHT22;72726;44.842;37.556;2024-01-30T03:38:52;-2.96;76.85
79016;DHT22;72726;44.842;37.556;2024-01-30T03:39:54;-2.97;76.72
79016;DHT22;72726;44.842;37.556;2024-01-30T03:40:55;-2.97;76.85
79016;DHT22;72726;44.842;37.556;2024-01-30T03:41:56;-3.01;76.69
79016;DHT22;72726;44.842;37.556;2024-01-30T03:42:57;-3.00;76.97
79016;DHT22;72726;44.842;37.556;2024-01-30T03:43:59;-3.03;76.85
79016;DHT22;72726;44.842;37.556;2024-01-30T03:45:01;-3.01;76.94
79016;DHT22;72726;44.842;37.556;2024-01-30T03:46:03;-3.04;77.51
79016;DHT22;72726;44.842;37.556;2024-01-30T03:47:04;-3.05;77.60
79016;DHT22;72726;44.842;37.556;2024-01-30T03:48:06;-3.05;77.60
79016;DHT22;72726;44.842;37.556;2024-01-30T03:49:09;-3.07;77.61
79016;DHT22;72726;44.842;37.556;2024-01-30T03:50:11;-3.10;77.70
79016;DHT22;72726;44.842;37.556;2024-01-30T03:51:12;-3.10;77.79
79016;DHT22;72726;44.842;37.556;2024-01-30T03:52:17;-3.13;77.74
79016;DHT22;72726;44.842;37.556;2024-01-30T03:53:18;-3.13;77.73
79016;DHT22;72726;44.842;37.556;2024-01-30T03:54:19;-3.15;77.90
79016;DHT22;72726;44.842;37.556;2024-01-30T03:55:20;-3.17;77.80
79016;DHT22;72726;44.842;37.556;2024-01-30T03:56:22;-3.17;77.98
79016;DHT22;72726;44.842;37.556;2024-01-30T03:57:23;-3.18;78.72
79016;DHT22;72726;44.842;37.556;2024-01-30T03:58:24;-3.14;78.69
79016;DHT22;72726;44.842;37.556;2024-01-30T03:59:26;-3.13;78.58
79016;DHT22;72726;44.842;37.556;2024-01-30T04:00:27;-3.13;78.25
79016;DHT22;72726;44.842;37.556;2024-01-30T04:01:28;-3.15;78.24
79016;DHT22;72726;44.842;37.556;2024-01-30T04:02:30;-3.11;78.26
79016;DHT22;72726;44.842;37.556;2024-01-30T04:03:31;-3.14;77.93
79016;DHT22;72726;44.842;37.556;2024-01-30T04:04:32;-3.15;77.66
79016;DHT22;72726;44.842;37.556;2024-01-30T04:05:34;-3.15;77.88
79016;DHT22;72726;44.842;37.556;2024-01-30T04:06:35;-3.20;77.95
79016;DHT22;72726;44.842;37.556;2024-01-30T04:07:36;-3.21;77.72
79016;DHT22;72726;44.842;37.556;2024-01-30T04:08:38;-3.21;77.37
79016;DHT22;72726;44.842;37.556;2024-01-30T04:09:39;-3.27;77.69
79016;DHT22;72726;44.842;37.556;2024-01-30T04:10:40;-3.27;77.70
79016;DHT22;72726;44.842;37.556;2024-01-30T04:11:42;-3.28;77.73
79016;DHT22;72726;44.842;37.556;2024-01-30T04:12:43;-3.30;77.32
79016;DHT22;72726;44.842;37.556;2024-01-30T04:13:44;-3.32;77.53
79016;DHT22;72726;44.842;37.556;2024-01-30T04:14:47;-3.35;77.73
79016;DHT22;72726;44.842;37.556;2024-01-30T04:15:49;-3.37;77.54
79016;DHT22;72726;44.842;37.556;2024-01-30T04:16:50;-3.38;77.34
79016;DHT22;72726;44.842;37.556;2024-01-30T04:17:51;-3.40;77.32
79016;DHT22;72726;44.842;37.556;2024-01-30T04:18:53;-3.41;77.78
79016;DHT22;72726;44.842;37.556;2024-01-30T04:19:54;-3.41;77.55
79016;DHT22;72726;44.842;37.556;2024-01-30T04:20:56;-3.42;77.60
79016;DHT22;72726;44.842;37.556;2024-01-30T04:21:57;-3.47;77.82
79016;DHT22;72726;44.842;37.556;2024-01-30T04:22:59;-3.44;78.13
79016;DHT22;72726;44.842;37.556;2024-01-30T04:24:01;-3.41;78.05
79016;DHT22;72726;44.842;37.556;2024-01-30T04:25:02;-3.41;77.82
79016;DHT22;72726;44.842;37.556;2024-01-30T04:26:04;-3.42;77.92
79016;DHT22;72726;44.842;37.556;2024-01-30T04:27:05;-3.41;78.28
79016;DHT22;72726;44.842;37.556;2024-01-30T04:28:06;-3.40;77.78
79016;DHT22;72726;44.842;37.556;2024-01-30T04:29:08;-3.38;78.07
79016;DHT22;72726;44.842;37.556;2024-01-30T04:30:10;-3.37;77.75
79016;DHT22;72726;44.842;37.556;2024-01-30T04:31:11;-3.35;78.28
79016;DHT22;72726;44.842;37.556;2024-01-30T04:32:13;-3.37;78.04
79016;DHT22;72726;44.842;37.556;2024-01-30T04:33:14;-3.34;78.21
79016;DHT22;72726;44.842;37.556;2024-01-30T04:34:15;-3.35;78.03
79016;DHT22;72726;44.842;37.556;2024-01-30T04:35:16;-3.37;78.11
79016;DHT22;72726;44.842;37.556;2024-01-30T04:36:18;-3.32;77.68
79016;DHT22;72726;44.842;37.556;2024-01-30T04:37:19;-3.34;77.76
79016;DHT22;72726;44.842;37.556;2024-01-30T04:38:20;-3.34;78.20
79016;DHT22;72726;44.842;37.556;2024-01-30T04:39:22;-3.31;77.82
79016;DHT22;72726;44.842;37.556;2024-01-30T04:40:24;-3.31;77.81
79016;DHT22;72726;44.842;37.556;2024-01-30T04:41:25;-3.28;77.87
79016;DHT22;72726;44.842;37.556;2024-01-30T04:42:27;-3.30;77.36
79016;DHT22;72726;44.842;37.556;2024-01-30T04:43:28;-3.28;77.10
79016;DHT22;72726;44.842;37.556;2024-01-30T04:44:29;-3.27;76.95
79016;DHT22;72726;44.842;37.556;2024-01-30T04:45:31;-3.25;76.50
79016;DHT22;72726;44.842;37.556;2024-01-30T04:46:32;-3.27;76.71
79016;DHT22;72726;44.842;37.556;2024-01-30T04:47:35;-3.28;76.80
79016;DHT22;72726;44.842;37.556;2024-01-30T04:48:36;-3.28;76.81
79016;DHT22;72726;44.842;37.556;2024-01-30T04:49:41;-3.32;76.75
79016;DHT22;72726;44.842;37.556;2024-01-30T04:50:42;-3.31;76.94
79016;DHT22;72726;44.842;37.556;2024-01-30T04:51:43;-3.31;76.71
79016;DHT22;72726;44.842;37.556;2024-01-30T04:52:44;-3.31;76.24
79016;DHT22;72726;44.842;37.556;2024-01-30T04:53:46;-3.32;76.62
79016;DHT22;72726;44.842;37.556;2024-01-30T04:54:47;-3.31;76.84
79016;DHT22;72726;44.842;37.556;2024-01-30T04:55:48;-3.32;76.75
79016;DHT22;72726;44.842;37.556;2024-01-30T04:56:50;-3.32;77.04
79016;DHT22;72726;44.842;37.556;2024-01-30T04:57:51;-3.31;76.43
79016;DHT22;72726;44.842;37.556;2024-01-30T04:58:53;-3.31;76.69
79016;DHT22;72726;44.842;37.556;2024-01-30T04:59:54;-3.31;76.51
79016;DHT22;72726;44.842;37.556;2024-01-30T05:00:55;-3.30;75.80
79016;DHT22;72726;44.842;37.556;2024-01-30T05:01:57;-3.28;75.63
79016;DHT22;72726;44.842;37.556;2024-01-30T05:02:58;-3.32;75.73
79016;DHT22;72726;44.842;37.556;2024-01-30T05:03:59;-3.32;75.92
79016;DHT22;72726;44.842;37.556;2024-01-30T05:05:02;-3.28;75.66
79016;DHT22;72726;44.842;37.556;2024-01-30T05:06:04;-3.22;76.20
79016;DHT22;72726;44.842;37.556;2024-01-30T05:07:05;-3.22;75.88
79016;DHT22;72726;44.842;37.556;2024-01-30T05:08:06;-3.22;75.84
79016;DHT22;72726;44.842;37.556;2024-01-30T05:09:08;-3.21;76.26
79016;DHT22;72726;44.842;37.556;2024-01-30T05:10:10;-3.20;75.77
79016;DHT22;72726;44.842;37.556;2024-01-30T05:11:11;-3.21;75.71
79016;DHT22;72726;44.842;37.556;2024-01-30T05:12:12;-3.20;75.79
79016;DHT22;72726;44.842;37.556;2024-01-30T05:13:14;-3.22;76.10
79016;DHT22;72726;44.842;37.556;2024-01-30T05:14:15;-3.20;76.11
79016;DHT22;72726;44.842;37.556;2024-01-30T05:15:17;-3.20;75.99
79016;DHT22;72726;44.842;37.556;2024-01-30T05:16:18;-3.17;76.11
79016;DHT22;72726;44.842;37.556;2024-01-30T05:17:20;-3.17;75.71
79016;DHT22;72726;44.842;37.556;2024-01-30T05:18:21;-3.17;75.80
79016;DHT22;72726;44.842;37.556;2024-01-30T05:19:22;-3.17;75.67
79016;DHT22;72726;44.842;37.556;2024-01-30T05:20:24;-3.15;75.79
79016;DHT22;72726;44.842;37.556;2024-01-30T05:21:28;-3.13;76.35
79016;DHT22;72726;44.842;37.556;2024-01-30T05:22:30;-3.10;76.56
79016;DHT22;72726;44.842;37.556;2024-01-30T05:23:31;-3.11;76.44
79016;DHT22;72726;44.842;37.556;2024-01-30T05:24:33;-3.10;75.44
79016;DHT22;72726;44.842;37.556;2024-01-30T05:25:34;-3.08;76.18
79016;DHT22;72726;44.842;37.556;2024-01-30T05:26:36;-3.05;76.14
79016;DHT22;72726;44.842;37.556;2024-01-30T05:27:37;-3.04;76.07
79016;DHT22;72726;44.842;37.556;2024-01-30T05:28:38;-3.03;76.14
79016;DHT22;72726;44.842;37.556;2024-01-30T05:29:40;-3.01;75.85
79016;DHT22;72726;44.842;37.556;2024-01-30T05:30:42;-3.05;75.89
79016;DHT22;72726;44.842;37.556;2024-01-30T05:31:43;-3.04;75.71
79016;DHT22;72726;44.842;37.556;2024-01-30T05:32:44;-2.97;76.39
79016;DHT22;72726;44.842;37.556;2024-01-30T05:33:46;-3.00;76.13
79016;DHT22;72726;44.842;37.556;2024-01-30T05:34:47;-3.00;76.29
79016;DHT22;72726;44.842;37.556;2024-01-30T05:35:48;-2.99;76.65
79016;DHT22;72726;44.842;37.556;2024-01-30T05:36:50;-2.97;76.51
79016;DHT22;72726;44.842;37.556;2024-01-30T05:37:51;-2.97;76.95
79016;DHT22;72726;44.842;37.556;2024-01-30T05:38:53;-2.96;77.08
79016;DHT22;72726;44.842;37.556;2024-01-30T05:39:54;-2.94;77.23
79016;DHT22;72726;44.842;37.556;2024-01-30T05:40:56;-2.96;76.67
79016;DHT22;72726;44.842;37.556;2024-01-30T05:41:59;-2.96;76.53
79016;DHT22;72726;44.842;37.556;2024-01-30T05:43:01;-2.94;76.64
79016;DHT22;72726;44.842;37.556;2024-01-30T05:44:03;-2.93;76.60
79016;DHT22;72726;44.842;37.556;2024-01-30T05:45:05;-2.90;76.62
79016;DHT22;72726;44.842;37.556;2024-01-30T05:46:06;-2.87;76.75
79016;DHT22;72726;44.842;37.556;2024-01-30T05:47:08;-2.87;76.32
79016;DHT22;72726;44.842;37.556;2024-01-30T05:48:09;-2.87;75.81
79016;DHT22;72726;44.842;37.556;2024-01-30T05:49:11;-2.86;75.87
79016;DHT22;72726;44.842;37.556;2024-01-30T05:50:12;-2.87;75.95
79016;DHT22;72726;44.842;37.556;2024-01-30T05:51:13;-2.85;75.74
79016;DHT22;72726;44.842;37.556;2024-01-30T05:52:15;-2.79;75.65
79016;DHT22;72726;44.842;37.556;2024-01-30T05:53:17;-2.77;75.92
79016;DHT22;72726;44.842;37.556;2024-01-30T05:54:18;-2.75;75.27
79016;DHT22;72726;44.842;37.556;2024-01-30T05:55:20;-2.73;75.33
79016;DHT22;72726;44.842;37.556;2024-01-30T05:56:21;-2.69;75.25
79016;DHT22;72726;44.842;37.556;2024-01-30T05:57:22;-2.66;75.46
79016;DHT22;72726;44.842;37.556;2024-01-30T05:58:24;-2.64;75.54
79016;DHT22;72726;44.842;37.556;2024-01-30T05:59:25;-2.64;75.28
79016;DHT22;72726;44.842;37.556;2024-01-30T06:00:27;-2.64;75.44
79016;DHT22;72726;44.842;37.556;2024-01-30T06:01:28;-2.61;75.28
79016;DHT22;72726;44.842;37.556;2024-01-30T06:02:30;-2.62;74.89
79016;DHT22;72726;44.842;37.556;2024-01-30T06:03:31;-2.62;74.75
79016;DHT22;72726;44.842;37.556;2024-01-30T06:04:32;-2.59;75.24
79016;DHT22;72726;44.842;37.556;2024-01-30T06:05:34;-2.58;75.77
79016;DHT22;72726;44.842;37.556;2024-01-30T06:06:35;-2.54;75.91
79016;DHT22;72726;44.842;37.556;2024-01-30T06:07:37;-2.48;75.47
79016;DHT22;72726;44.842;37.556;2024-01-30T06:08:38;-2.48;75.30
79016;DHT22;72726;44.842;37.556;2024-01-30T06:09:39;-2.45;74.67
79016;DHT22;72726;44.842;37.556;2024-01-30T06:10:41;-2.42;74.58
79016;DHT22;72726;44.842;37.556;2024-01-30T06:11:43;-2.42;74.81
79016;DHT22;72726;44.842;37.556;2024-01-30T06:12:44;-2.40;75.03
79016;DHT22;72726;44.842;37.556;2024-01-30T06:13:45;-2.38;75.16
79016;DHT22;72726;44.842;37.556;2024-01-30T06:14:47;-2.36;75.13
79016;DHT22;72726;44.842;37.556;2024-01-30T06:15:51;-2.33;74.68
79016;DHT22;72726;44.842;37.556;2024-01-30T06:16:52;-2.34;74.95
79016;DHT22;72726;44.842;37.556;2024-01-30T06:17:54;-2.28;75.54
79016;DHT22;72726;44.842;37.556;2024-01-30T06:18:56;-2.26;74.68
79016;DHT22;72726;44.842;37.556;2024-01-30T06:19:57;-2.24;74.29
79016;DHT22;72726;44.842;37.556;2024-01-30T06:20:59;-2.21;74.39
79016;DHT22;72726;44.842;37.556;2024-01-30T06:22:00;-2.23;74.03
79016;DHT22;72726;44.842;37.556;2024-01-30T06:23:02;-2.17;74.58